Time;durP1;ratioP1;P1;durP2;ratioP2;P2;SDS_P1;SDS_P2;PMS_P1;PMS_P2;Temp;Humidity;BMP_temperature;BMP_pressure;BME280_temperature;BME280_humidity;BME280_pressure;Samples;Min_cycle;Max_cycle;Signal;HPM_P1;HPM_P2
2022/07/15 10:34:34;;;;;;;0.57;0.47;;;;;;;22.25;44.34;99751.31;10624055;27;20185;-72
2022/07/15 10:39:46;;;;;;;1.95;0.50;;;;;;;22.20;44.24;99754.44;10599556;28;20063;-71
2022/07/15 10:45:08;;;;;;;0.50;0.50;;;;;;;21.97;46.89;99749.75;10588039;28;20051;-70
2022/07/15 10:50:37;;;;;;;1.13;0.60;;;;;;;21.68;46.60;99753.31;10602901;28;20051;-70
2022/07/15 10:55:40;;;;;;;0.55;0.55;;;;;;;21.47;44.93;99744.66;10602433;28;20035;-71
2022/07/15 11:00:44;;;;;;;1.90;0.40;;;;;;;21.46;44.83;99746.63;10608717;28;20067;-72
2022/07/15 11:05:49;;;;;;;1.23;0.40;;;;;;;21.62;44.46;99738.91;10585912;28;20039;-71
2022/07/15 11:10:51;;;;;;;0.40;0.40;;;;;;;21.72;43.55;99731.06;10603578;28;20063;-73
2022/07/15 11:16:00;;;;;;;0.30;0.30;;;;;;;21.93;44.06;99722.97;10588817;28;20055;-72
2022/07/15 11:21:02;;;;;;;2.00;0.43;;;;;;;21.91;44.16;99722.53;10586709;28;20040;-72
2022/07/15 11:26:05;;;;;;;0.60;0.40;;;;;;;21.95;44.10;99718.59;10611551;28;20040;-88
2022/07/15 11:31:07;;;;;;;0.85;0.50;;;;;;;22.04;44.06;99721.09;10567534;28;20134;-71
2022/07/15 11:36:17;;;;;;;0.73;0.50;;;;;;;22.05;44.40;99708.78;10585512;28;20051;-69
2022/07/15 11:46:44;;;;;;;1.75;0.50;;;;;;;22.03;42.09;99708.28;10560342;28;20047;-69
2022/07/15 11:51:46;;;;;;;0.77;0.40;;;;;;;21.93;42.47;99704.22;10551932;28;20052;-68
2022/07/15 11:57:01;;;;;;;1.05;0.70;;;;;;;21.90;42.79;99720.94;10555222;28;20052;-70
2022/07/15 12:02:07;;;;;;;0.55;0.40;;;;;;;21.72;44.43;99725.47;10572151;28;20043;-71
2022/07/15 12:07:10;;;;;;;1.10;0.30;;;;;;;21.43;45.63;99732.63;10572515;28;20042;-72
2022/07/15 12:12:12;;;;;;;0.43;0.40;;;;;;;21.35;45.23;99740.91;10556072;28;20040;-80
2022/07/15 12:17:15;;;;;;;1.50;0.30;;;;;;;21.21;45.77;99734.28;10549816;28;20039;-74
2022/07/15 12:22:17;;;;;;;0.40;0.40;;;;;;;21.11;45.53;99738.50;10577143;28;20036;-73
2022/07/15 12:27:32;;;;;;;1.50;0.40;;;;;;;20.84;46.05;99754.38;10577498;28;20048;-71
2022/07/15 12:32:35;;;;;;;0.63;0.63;;;;;;;20.61;46.98;99754.34;10571698;28;20537;-72
2022/07/15 12:37:39;;;;;;;0.40;0.30;;;;;;;20.58;46.80;99757.88;10572595;28;20043;-71
2022/07/15 12:42:44;;;;;;;0.80;0.50;;;;;;;20.47;47.57;99756.88;10573229;28;20040;-72
2022/07/15 12:48:03;;;;;;;0.57;0.32;;;;;;;20.37;47.57;99754.66;10573240;28;20082;-72
2022/07/15 12:53:05;;;;;;;0.47;0.43;;;;;;;20.52;48.01;99762.16;10571853;28;20044;-72
2022/07/15 12:58:10;;;;;;;0.40;0.40;;;;;;;20.70;46.56;99748.56;10552981;28;20044;-72
2022/07/15 13:03:20;;;;;;;0.50;0.40;;;;;;;20.62;45.94;99744.00;10568388;28;20047;-72
2022/07/15 13:08:28;;;;;;;0.40;0.30;;;;;;;20.55;45.95;99752.25;10549650;28;20028;-72
2022/07/15 13:13:34;;;;;;;0.32;0.32;;;;;;;20.32;46.18;99747.41;10528784;28;20075;-71
2022/07/15 13:18:36;;;;;;;0.45;0.45;;;;;;;20.24;46.99;99744.84;10495544;28;20048;-73
2022/07/15 13:23:40;;;;;;;1.58;0.50;;;;;;;20.38;46.88;99757.09;10549481;28;20507;-72
2022/07/15 13:28:42;;;;;;;0.60;0.35;;;;;;;20.38;46.77;99754.28;10532110;28;20060;-73
2022/07/15 13:33:45;;;;;;;0.40;0.40;;;;;;;20.41;46.44;99750.81;10565919;28;20072;-73
2022/07/15 13:38:47;;;;;;;1.52;0.55;;;;;;;20.40;47.03;99748.34;10557402;28;20044;-73
2022/07/15 13:43:49;;;;;;;0.28;0.28;;;;;;;20.52;47.22;99747.41;10547864;28;20035;-73
2022/07/15 13:48:51;;;;;;;1.95;0.50;;;;;;;20.59;46.46;99739.19;10570445;28;20557;-73
2022/07/15 13:53:55;;;;;;;0.43;0.40;;;;;;;20.65;46.20;99738.53;10551228;28;20052;-73
2022/07/15 13:58:59;;;;;;;0.35;0.35;;;;;;;20.75;45.42;99753.81;10561721;28;20055;-73
2022/07/15 14:04:22;;;;;;;1.98;0.40;;;;;;;20.82;45.99;99758.69;10566812;28;20048;-73
2022/07/15 14:09:24;;;;;;;1.08;0.40;;;;;;;20.87;46.27;99761.19;10576641;28;20047;-73
2022/07/15 14:14:27;;;;;;;0.40;0.40;;;;;;;20.78;46.43;99753.88;10585231;28;20064;-73
2022/07/15 14:19:29;;;;;;;1.73;0.43;;;;;;;20.61;46.91;99759.94;10568305;28;20043;-73
2022/07/15 14:24:32;;;;;;;0.40;0.40;;;;;;;20.47;47.72;99754.09;10569303;28;20410;-74
2022/07/15 14:29:34;;;;;;;1.50;0.43;;;;;;;20.33;47.24;99746.25;10538956;28;20051;-73
2022/07/15 14:34:36;;;;;;;0.55;0.43;;;;;;;20.21;47.45;99743.59;10492861;28;20522;-73
2022/07/15 14:39:39;;;;;;;1.83;0.60;;;;;;;20.21;47.88;99740.03;10566492;28;20529;-73
2022/07/15 14:44:41;;;;;;;0.50;0.35;;;;;;;20.24;47.74;99733.72;10581753;28;20054;-73
2022/07/15 14:49:43;;;;;;;0.60;0.60;;;;;;;20.22;47.95;99736.06;10597704;28;20054;-73
2022/07/15 14:54:46;;;;;;;0.35;0.30;;;;;;;20.24;47.87;99722.56;10588413;28;20134;-72
2022/07/15 14:59:49;;;;;;;1.27;0.50;;;;;;;20.25;46.97;99740.88;10569409;28;20051;-73
2022/07/15 15:04:51;;;;;;;0.40;0.40;;;;;;;20.18;47.05;99745.16;10562571;28;20050;-72
2022/07/15 15:09:53;;;;;;;1.00;0.40;;;;;;;20.10;47.95;99748.94;10550622;28;20055;-73
2022/07/15 15:14:56;;;;;;;1.85;0.80;;;;;;;20.05;48.82;99743.69;10568332;28;20044;-73
2022/07/15 15:19:58;;;;;;;2.10;0.77;;;;;;;20.00;49.51;99749.56;10586843;28;20036;-73
2022/07/15 15:25:01;;;;;;;0.75;0.30;;;;;;;19.96;49.44;99745.91;10574850;28;20036;-73
2022/07/15 15:30:06;;;;;;;1.10;0.60;;;;;;;19.91;49.58;99743.38;10561215;28;20067;-73
2022/07/15 15:35:08;;;;;;;1.33;0.55;;;;;;;19.96;50.61;99748.69;10586281;28;20062;-72
2022/07/15 15:40:11;;;;;;;0.57;0.45;;;;;;;20.02;51.28;99755.56;10583522;28;20032;-72
2022/07/15 15:45:13;;;;;;;0.85;0.50;;;;;;;19.94;51.97;99747.41;10574987;28;20040;-72
2022/07/15 15:50:17;;;;;;;0.82;0.40;;;;;;;19.86;52.55;99758.41;10586527;28;20062;-72
2022/07/15 15:55:19;;;;;;;0.50;0.50;;;;;;;19.61;52.30;99761.78;10578939;28;20036;-72
2022/07/15 16:00:22;;;;;;;1.52;0.50;;;;;;;19.46;53.07;99766.22;10556512;28;20044;-73
2022/07/15 16:05:24;;;;;;;0.68;0.50;;;;;;;19.32;53.58;99766.69;10551045;28;20036;-72
2022/07/15 16:10:26;;;;;;;0.95;0.60;;;;;;;19.16;54.45;99763.13;10547594;28;20040;-73
2022/07/15 16:15:29;;;;;;;0.40;0.38;;;;;;;18.95;53.80;99763.41;10565383;28;20036;-74
2022/07/15 16:20:32;;;;;;;0.95;0.50;;;;;;;18.82;52.69;99765.44;10566901;28;20517;-73
2022/07/15 16:25:36;;;;;;;0.65;0.43;;;;;;;18.76;51.92;99766.06;10578876;27;20445;-73
2022/07/15 16:30:38;;;;;;;0.52;0.43;;;;;;;18.64;51.71;99767.75;10562828;28;20640;-74
2022/07/15 16:35:41;;;;;;;0.80;0.80;;;;;;;18.64;51.71;99764.16;10561546;28;20032;-72
2022/07/15 16:40:44;;;;;;;0.80;0.70;;;;;;;18.62;51.36;99760.91;10544129;28;20051;-70
2022/07/15 16:45:46;;;;;;;2.78;0.90;;;;;;;18.63;51.74;99757.00;10564837;28;20032;-70
2022/07/15 16:50:49;;;;;;;1.33;0.70;;;;;;;18.70;51.94;99754.41;10562239;28;20059;-70
2022/07/15 16:55:51;;;;;;;1.25;0.88;;;;;;;18.74;52.06;99749.72;10567450;28;20052;-72
2022/07/15 17:00:53;;;;;;;0.85;0.60;;;;;;;18.74;51.49;99749.72;10577121;28;20036;-70
2022/07/15 17:05:56;;;;;;;0.43;0.43;;;;;;;18.67;51.32;99752.34;10571500;28;20047;-70
2022/07/15 17:10:59;;;;;;;1.60;1.05;;;;;;;18.58;52.19;99748.91;10571683;28;20383;-71
2022/07/15 17:16:03;;;;;;;1.00;0.85;;;;;;;18.48;52.68;99750.22;10572032;28;20048;-70
2022/07/15 17:21:05;;;;;;;0.63;0.57;;;;;;;18.35;53.29;99757.81;10571338;28;20066;-71
2022/07/15 17:26:07;;;;;;;0.50;0.50;;;;;;;18.30;53.65;99749.72;10571568;28;20044;-71
2022/07/15 17:31:10;;;;;;;2.25;1.02;;;;;;;18.32;54.36;99739.06;10552956;28;20044;-71
2022/07/15 17:36:12;;;;;;;0.95;0.63;;;;;;;18.28;54.72;99735.41;10570120;28;20063;-70
2022/07/15 17:41:15;;;;;;;1.10;0.60;;;;;;;18.30;55.05;99737.81;10555547;28;20541;-71
2022/07/15 17:46:17;;;;;;;1.17;0.70;;;;;;;18.32;55.32;99730.75;10511357;28;20051;-71
2022/07/15 17:51:20;;;;;;;0.88;0.75;;;;;;;18.31;55.41;99740.25;10528991;28;20052;-71
2022/07/15 17:56:22;;;;;;;1.27;0.70;;;;;;;18.34;55.83;99728.41;10527715;28;20044;-71
2022/07/15 18:01:25;;;;;;;2.10;0.80;;;;;;;18.37;56.13;99738.81;10528858;28;20051;-71
2022/07/15 18:06:27;;;;;;;2.92;0.80;;;;;;;18.34;56.56;99733.97;10531949;28;20041;-71
2022/07/15 18:11:30;;;;;;;0.68;0.68;;;;;;;18.35;56.39;99734.78;10510285;28;20057;-71
2022/07/15 18:16:32;;;;;;;1.65;0.80;;;;;;;18.27;56.95;99732.97;10510413;28;20041;-71
2022/07/15 18:21:34;;;;;;;0.70;0.60;;;;;;;18.20;56.53;99743.88;10546664;28;20067;-71
2022/07/15 18:26:37;;;;;;;1.95;0.70;;;;;;;18.15;56.17;99744.13;10547711;28;20048;-85
2022/07/15 18:31:39;;;;;;;0.52;0.52;;;;;;;18.16;56.40;99748.53;10509047;28;20056;-85
2022/07/15 18:36:41;;;;;;;1.88;0.77;;;;;;;18.19;56.30;99748.63;10563256;28;20051;-88
2022/07/15 18:41:45;;;;;;;2.47;1.00;;;;;;;18.15;55.76;99747.72;10569915;28;20051;-75
2022/07/15 18:46:47;;;;;;;2.28;1.20;;;;;;;18.12;55.27;99748.44;10568955;28;20529;-75
2022/07/15 18:51:49;;;;;;;0.47;0.45;;;;;;;18.11;55.51;99746.81;10560538;28;20527;-84
2022/07/15 18:56:52;;;;;;;1.60;0.98;;;;;;;18.00;55.77;99738.16;10560095;28;20040;-74
2022/07/15 19:01:54;;;;;;;1.65;0.82;;;;;;;17.94;55.84;99744.34;10576105;28;20052;-74
2022/07/15 19:06:57;;;;;;;1.85;0.90;;;;;;;17.91;56.07;99742.28;10575208;28;20036;-74
2022/07/15 19:11:59;;;;;;;1.48;0.50;;;;;;;17.91;56.09;99747.81;10517833;28;20498;-74
2022/07/15 19:17:02;;;;;;;0.90;0.70;;;;;;;17.88;56.36;99748.53;10544024;28;20033;-74
2022/07/15 19:22:06;;;;;;;1.77;0.70;;;;;;;17.94;56.51;99752.66;10544890;28;20040;-74
2022/07/15 19:27:08;;;;;;;3.25;0.70;;;;;;;17.92;57.26;99749.44;10581505;28;20498;-72
2022/07/15 19:32:11;;;;;;;1.75;0.50;;;;;;;17.92;57.86;99761.34;10555131;28;20059;-73
2022/07/15 19:37:13;;;;;;;3.78;0.70;;;;;;;17.78;58.32;99750.63;10605494;28;20043;-73
2022/07/15 19:42:15;;;;;;;2.03;0.65;;;;;;;17.68;59.41;99756.66;10567634;28;20517;-73
2022/07/15 19:47:18;;;;;;;1.67;0.80;;;;;;;17.62;59.77;99748.91;10581326;28;20040;-73
2022/07/15 19:52:21;;;;;;;1.35;0.60;;;;;;;17.55;60.53;99748.69;10587385;28;20035;-73
2022/07/15 19:57:23;;;;;;;1.13;0.75;;;;;;;17.44;60.32;99751.13;10607974;28;20505;-73
2022/07/15 20:02:26;;;;;;;0.98;0.60;;;;;;;17.38;61.91;99758.06;10573278;28;20047;-73
2022/07/15 20:07:28;;;;;;;2.33;0.65;;;;;;;17.31;62.30;99766.97;10572479;28;20036;-79
2022/07/15 20:12:31;;;;;;;0.70;0.55;;;;;;;17.20;62.40;99757.50;10575978;28;20036;-86
2022/07/15 20:17:33;;;;;;;1.70;0.70;;;;;;;17.09;63.12;99772.97;10557126;28;20043;-76
2022/07/15 20:22:36;;;;;;;1.92;0.80;;;;;;;16.97;64.02;99762.66;10543677;28;20407;-86
2022/07/15 20:27:39;;;;;;;1.40;0.68;;;;;;;16.88;64.66;99764.75;10571585;28;20036;-79
2022/07/15 20:32:42;;;;;;;1.38;0.73;;;;;;;16.77;65.74;99769.13;10574488;28;20526;-82
2022/07/15 20:37:44;;;;;;;0.70;0.40;;;;;;;16.66;66.26;99765.13;10586696;28;20123;-74
2022/07/15 20:42:47;;;;;;;0.68;0.50;;;;;;;16.58;66.86;99784.28;10570952;28;20035;-76
2022/07/15 20:47:49;;;;;;;1.40;0.43;;;;;;;16.52;67.65;99787.63;10575110;28;20048;-80
2022/07/15 20:52:52;;;;;;;1.08;0.52;;;;;;;16.50;67.96;99781.63;10577643;28;20040;-80
2022/07/15 20:57:55;;;;;;;1.30;0.73;;;;;;;16.44;68.50;99792.06;10591337;28;20039;-79
2022/07/15 21:02:57;;;;;;;0.95;0.70;;;;;;;16.39;68.52;99780.41;10573234;28;20040;-80
2022/07/15 21:07:59;;;;;;;1.75;0.90;;;;;;;16.37;69.07;99782.72;10567250;28;20047;-81
2022/07/15 21:13:03;;;;;;;1.30;0.65;;;;;;;16.41;69.48;99783.66;10570843;28;20040;-79
2022/07/15 21:18:05;;;;;;;1.77;0.63;;;;;;;16.40;69.80;99785.63;10557093;28;20040;-80
2022/07/15 21:23:07;;;;;;;0.80;0.63;;;;;;;16.36;69.92;99783.88;10550788;28;20039;-78
2022/07/15 21:28:10;;;;;;;1.23;0.50;;;;;;;16.37;70.40;99791.84;10563626;28;20044;-79
2022/07/15 21:33:13;;;;;;;0.40;0.40;;;;;;;16.32;71.05;99782.94;10603304;28;20445;-78
2022/07/15 21:38:16;;;;;;;2.42;0.60;;;;;;;16.27;71.87;99783.94;10570396;28;20043;-78
2022/07/15 21:43:19;;;;;;;0.80;0.47;;;;;;;16.22;72.62;99793.28;10570756;28;20040;-79
2022/07/15 21:48:21;;;;;;;0.40;0.40;;;;;;;16.17;73.18;99793.50;10535388;28;20062;-80
2022/07/15 21:53:24;;;;;;;0.50;0.43;;;;;;;16.12;73.12;99801.97;10567573;28;20044;-73
2022/07/15 21:58:26;;;;;;;1.02;0.65;;;;;;;16.16;73.75;99800.19;10574984;28;20044;-73
2022/07/15 22:03:28;;;;;;;0.65;0.63;;;;;;;16.14;74.05;99787.78;10570393;28;20047;-74
2022/07/15 22:08:30;;;;;;;0.60;0.60;;;;;;;16.12;74.58;99796.44;10552151;28;20426;-73
2022/07/15 22:13:33;;;;;;;2.72;0.45;;;;;;;16.07;74.64;99788.34;10569952;28;20457;-74
2022/07/15 22:18:35;;;;;;;2.58;0.70;;;;;;;16.06;75.00;99802.53;10552145;28;20517;-73
2022/07/15 22:23:39;;;;;;;2.28;0.70;;;;;;;16.05;74.95;99795.38;10514129;28;20495;-74
2022/07/15 22:28:41;;;;;;;0.52;0.43;;;;;;;16.04;75.51;99799.28;10552965;28;20032;-73
2022/07/15 22:33:43;;;;;;;0.43;0.43;;;;;;;16.00;75.39;99803.91;10527565;28;20538;-73
2022/07/15 22:38:46;;;;;;;0.50;0.50;;;;;;;15.97;75.54;99806.19;10527712;28;20419;-73
2022/07/15 22:43:48;;;;;;;0.60;0.40;;;;;;;16.00;75.68;99814.97;10531300;28;20134;-73
2022/07/15 22:48:50;;;;;;;1.17;0.45;;;;;;;16.00;75.80;99809.44;10527404;28;20043;-73
2022/07/15 22:53:53;;;;;;;0.77;0.40;;;;;;;16.00;76.03;99796.41;10532105;28;20048;-73
2022/07/15 22:58:55;;;;;;;1.40;0.30;;;;;;;15.92;75.57;99798.06;10533235;28;20036;-74
2022/07/15 23:03:58;;;;;;;0.40;0.40;;;;;;;15.89;75.99;99806.25;10527292;28;20056;-73
2022/07/15 23:09:00;;;;;;;0.85;0.40;;;;;;;15.89;76.10;99811.78;10523815;28;20048;-73
2022/07/15 23:14:03;;;;;;;0.98;0.45;;;;;;;15.87;75.97;99805.78;10526030;28;20044;-73
2022/07/15 23:19:05;;;;;;;1.10;0.47;;;;;;;15.76;75.54;99804.53;10509339;28;20040;-73
2022/07/15 23:24:07;;;;;;;1.00;0.45;;;;;;;15.80;75.78;99806.31;10493175;28;20040;-73
2022/07/15 23:29:10;;;;;;;0.20;0.20;;;;;;;15.73;75.89;99807.97;10526743;28;20042;-74
2022/07/15 23:34:12;;;;;;;0.43;0.30;;;;;;;15.60;75.67;99812.63;10525360;28;20185;-73
2022/07/15 23:39:14;;;;;;;0.95;0.35;;;;;;;15.59;75.26;99811.81;10529182;28;20044;-73
2022/07/15 23:44:17;;;;;;;1.45;0.50;;;;;;;15.55;75.17;99816.34;10499480;28;20506;-73
2022/07/15 23:49:19;;;;;;;0.28;0.25;;;;;;;15.49;75.09;99817.69;10533620;28;20499;-73
2022/07/15 23:54:21;;;;;;;0.28;0.28;;;;;;;15.49;74.62;99814.13;10533371;28;20415;-73
